sensor_id;sensor_type;location;lat;lon;timestamp;temperature;humidity
55642;DHT22;41509;53.108;6.100;2022-11-20T00:00:56;0.90;99.90
55642;DHT22;41509;53.108;6.100;2022-11-20T00:03:22;0.90;99.90
55642;DHT22;41509;53.108;6.100;2022-11-20T00:05:48;1.00;99.90
55642;DHT22;41509;53.108;6.100;2022-11-20T00:08:13;1.00;99.90
55642;DHT22;41509;53.108;6.100;2022-11-20T00:10:39;1.00;99.90
55642;DHT22;41509;53.108;6.100;2022-11-20T00:13:06;1.00;99.90
55642;DHT22;41509;53.108;6.100;2022-11-20T00:15:32;1.00;99.90
55642;DHT22;41509;53.108;6.100;2022-11-20T00:17:57;1.00;99.90
55642;DHT22;41509;53.108;6.100;2022-11-20T00:20:23;1.00;99.90
55642;DHT22;41509;53.108;6.100;2022-11-20T00:22:49;1.10;99.90
55642;DHT22;41509;53.108;6.100;2022-11-20T00:25:15;1.00;99.90
55642;DHT22;41509;53.108;6.100;2022-11-20T00:27:41;1.00;99.90
55642;DHT22;41509;53.108;6.100;2022-11-20T00:30:07;1.10;99.90
55642;DHT22;41509;53.108;6.100;2022-11-20T00:32:33;1.00;99.90
55642;DHT22;41509;53.108;6.100;2022-11-20T00:34:58;1.10;99.90
55642;DHT22;41509;53.108;6.100;2022-11-20T00:37:24;1.10;99.90
55642;DHT22;41509;53.108;6.100;2022-11-20T00:39:49;1.10;99.90
55642;DHT22;41509;53.108;6.100;2022-11-20T00:42:15;1.10;99.90
55642;DHT22;41509;53.108;6.100;2022-11-20T00:44:40;1.10;99.90
55642;DHT22;41509;53.108;6.100;2022-11-20T00:47:06;1.10;99.90
55642;DHT22;41509;53.108;6.100;2022-11-20T00:49:32;1.10;99.90
55642;DHT22;41509;53.108;6.100;2022-11-20T00:51:57;1.10;99.90
55642;DHT22;41509;53.108;6.100;2022-11-20T00:54:23;1.10;99.90
55642;DHT22;41509;53.108;6.100;2022-11-20T00:56:49;1.00;99.90
55642;DHT22;41509;53.108;6.100;2022-11-20T00:59:14;1.00;99.90
55642;DHT22;41509;53.108;6.100;2022-11-20T01:01:40;1.00;99.90
55642;DHT22;41509;53.108;6.100;2022-11-20T01:04:05;1.00;99.90
55642;DHT22;41509;53.108;6.100;2022-11-20T01:06:36;1.00;99.90
55642;DHT22;41509;53.108;6.100;2022-11-20T01:09:08;1.00;99.90
55642;DHT22;41509;53.108;6.100;2022-11-20T01:11:37;1.00;99.90
55642;DHT22;41509;53.108;6.100;2022-11-20T01:14:05;0.90;99.90
55642;DHT22;41509;53.108;6.100;2022-11-20T01:16:37;0.90;99.90
55642;DHT22;41509;53.108;6.100;2022-11-20T01:19:05;0.90;99.90
55642;DHT22;41509;53.108;6.100;2022-11-20T01:21:36;0.90;99.90
55642;DHT22;41509;53.108;6.100;2022-11-20T01:24:03;0.90;99.90
55642;DHT22;41509;53.108;6.100;2022-11-20T01:26:32;0.90;99.90
55642;DHT22;41509;53.108;6.100;2022-11-20T01:28:59;0.90;99.90
55642;DHT22;41509;53.108;6.100;2022-11-20T01:31:33;0.90;99.90
55642;DHT22;41509;53.108;6.100;2022-11-20T01:34:02;0.90;99.90
55642;DHT22;41509;53.108;6.100;2022-11-20T01:36:30;1.00;99.90
55642;DHT22;41509;53.108;6.100;2022-11-20T01:39:02;1.00;99.90
55642;DHT22;41509;53.108;6.100;2022-11-20T01:41:32;1.00;99.90
55642;DHT22;41509;53.108;6.100;2022-11-20T01:44:19;1.00;99.90
55642;DHT22;41509;53.108;6.100;2022-11-20T01:46:58;1.10;99.90
55642;DHT22;41509;53.108;6.100;2022-11-20T01:49:37;1.00;99.90
55642;DHT22;41509;53.108;6.100;2022-11-20T01:57:20;1.10;99.90
55642;DHT22;41509;53.108;6.100;2022-11-20T01:59:54;1.10;99.90
55642;DHT22;41509;53.108;6.100;2022-11-20T02:02:21;1.00;99.90
55642;DHT22;41509;53.108;6.100;2022-11-20T02:04:49;1.10;99.90
55642;DHT22;41509;53.108;6.100;2022-11-20T02:07:17;1.10;99.90
55642;DHT22;41509;53.108;6.100;2022-11-20T02:09:43;1.10;99.90
55642;DHT22;41509;53.108;6.100;2022-11-20T02:12:09;1.10;99.90
55642;DHT22;41509;53.108;6.100;2022-11-20T02:14:56;1.10;99.90
55642;DHT22;41509;53.108;6.100;2022-11-20T02:17:22;1.10;99.90
55642;DHT22;41509;53.108;6.100;2022-11-20T02:19:47;1.10;99.90
55642;DHT22;41509;53.108;6.100;2022-11-20T02:22:25;1.20;99.90
55642;DHT22;41509;53.108;6.100;2022-11-20T02:24:54;1.20;99.90
55642;DHT22;41509;53.108;6.100;2022-11-20T02:27:20;1.20;99.90
55642;DHT22;41509;53.108;6.100;2022-11-20T02:29:55;1.20;99.90
55642;DHT22;41509;53.108;6.100;2022-11-20T02:34:48;1.20;99.90
55642;DHT22;41509;53.108;6.100;2022-11-20T02:37:14;1.20;99.90
55642;DHT22;41509;53.108;6.100;2022-11-20T02:39:40;1.20;99.90
55642;DHT22;41509;53.108;6.100;2022-11-20T02:42:07;1.30;99.90
55642;DHT22;41509;53.108;6.100;2022-11-20T02:44:32;1.30;99.90
55642;DHT22;41509;53.108;6.100;2022-11-20T02:46:58;1.30;99.90
55642;DHT22;41509;53.108;6.100;2022-11-20T02:49:24;1.20;99.90
55642;DHT22;41509;53.108;6.100;2022-11-20T02:51:50;1.30;99.90
55642;DHT22;41509;53.108;6.100;2022-11-20T02:54:16;1.20;99.90
55642;DHT22;41509;53.108;6.100;2022-11-20T02:56:42;1.30;99.90
55642;DHT22;41509;53.108;6.100;2022-11-20T02:59:08;1.30;99.90
55642;DHT22;41509;53.108;6.100;2022-11-20T03:01:34;1.30;99.90
55642;DHT22;41509;53.108;6.100;2022-11-20T03:04:00;1.30;99.90
55642;DHT22;41509;53.108;6.100;2022-11-20T03:06:25;1.20;99.90
55642;DHT22;41509;53.108;6.100;2022-11-20T03:08:51;1.20;99.90
55642;DHT22;41509;53.108;6.100;2022-11-20T03:11:17;1.30;99.90
55642;DHT22;41509;53.108;6.100;2022-11-20T03:13:42;1.20;99.90
55642;DHT22;41509;53.108;6.100;2022-11-20T03:16:14;1.20;99.90
55642;DHT22;41509;53.108;6.100;2022-11-20T03:18:40;1.20;99.90
55642;DHT22;41509;53.108;6.100;2022-11-20T03:21:06;1.20;99.90
55642;DHT22;41509;53.108;6.100;2022-11-20T03:23:33;1.20;99.90
55642;DHT22;41509;53.108;6.100;2022-11-20T03:26:14;1.20;99.90
55642;DHT22;41509;53.108;6.100;2022-11-20T03:28:41;1.30;99.90
55642;DHT22;41509;53.108;6.100;2022-11-20T03:31:12;1.30;99.90
55642;DHT22;41509;53.108;6.100;2022-11-20T03:33:39;1.30;99.90
55642;DHT22;41509;53.108;6.100;2022-11-20T03:36:08;1.30;99.90
55642;DHT22;41509;53.108;6.100;2022-11-20T03:38:34;1.30;99.90
55642;DHT22;41509;53.108;6.100;2022-11-20T03:41:07;1.30;99.90
55642;DHT22;41509;53.108;6.100;2022-11-20T03:43:33;1.30;99.90
55642;DHT22;41509;53.108;6.100;2022-11-20T03:45:59;1.30;99.90
55642;DHT22;41509;53.108;6.100;2022-11-20T03:48:25;1.40;99.90
55642;DHT22;41509;53.108;6.100;2022-11-20T03:50:52;1.40;99.90
55642;DHT22;41509;53.108;6.100;2022-11-20T03:53:18;1.40;99.90
55642;DHT22;41509;53.108;6.100;2022-11-20T03:55:44;1.40;99.90
55642;DHT22;41509;53.108;6.100;2022-11-20T03:58:10;1.40;99.90
55642;DHT22;41509;53.108;6.100;2022-11-20T04:00:35;1.40;99.90
55642;DHT22;41509;53.108;6.100;2022-11-20T04:03:02;1.40;99.90
55642;DHT22;41509;53.108;6.100;2022-11-20T04:05:28;1.40;99.90
55642;DHT22;41509;53.108;6.100;2022-11-20T04:07:53;1.40;99.90
55642;DHT22;41509;53.108;6.100;2022-11-20T04:10:19;1.40;99.90
55642;DHT22;41509;53.108;6.100;2022-11-20T04:12:45;1.50;99.90
55642;DHT22;41509;53.108;6.100;2022-11-20T04:15:10;1.50;99.90
55642;DHT22;41509;53.108;6.100;2022-11-20T04:17:36;1.40;99.90
55642;DHT22;41509;53.108;6.100;2022-11-20T04:20:02;1.50;99.90
55642;DHT22;41509;53.108;6.100;2022-11-20T04:22:28;1.50;99.90
55642;DHT22;41509;53.108;6.100;2022-11-20T04:24:54;1.40;99.90
55642;DHT22;41509;53.108;6.100;2022-11-20T04:27:20;1.40;99.90
55642;DHT22;41509;53.108;6.100;2022-11-20T04:29:46;1.40;99.90
55642;DHT22;41509;53.108;6.100;2022-11-20T04:32:11;1.40;99.90
55642;DHT22;41509;53.108;6.100;2022-11-20T04:34:37;1.40;99.90
55642;DHT22;41509;53.108;6.100;2022-11-20T04:37:03;1.40;99.90
55642;DHT22;41509;53.108;6.100;2022-11-20T04:39:29;1.40;99.90
55642;DHT22;41509;53.108;6.100;2022-11-20T04:41:54;1.30;99.90
55642;DHT22;41509;53.108;6.100;2022-11-20T04:44:38;1.30;99.90
55642;DHT22;41509;53.108;6.100;2022-11-20T04:47:04;1.30;99.90
55642;DHT22;41509;53.108;6.100;2022-11-20T04:49:30;1.30;99.90
55642;DHT22;41509;53.108;6.100;2022-11-20T04:51:57;1.30;99.90
55642;DHT22;41509;53.108;6.100;2022-11-20T04:54:22;1.30;99.90
55642;DHT22;41509;53.108;6.100;2022-11-20T04:56:48;1.30;99.90
55642;DHT22;41509;53.108;6.100;2022-11-20T04:59:14;1.30;99.90
55642;DHT22;41509;53.108;6.100;2022-11-20T05:01:39;1.30;99.90
55642;DHT22;41509;53.108;6.100;2022-11-20T05:04:05;1.20;99.90
55642;DHT22;41509;53.108;6.100;2022-11-20T05:06:31;1.20;99.90
55642;DHT22;41509;53.108;6.100;2022-11-20T05:08:57;1.20;99.90
55642;DHT22;41509;53.108;6.100;2022-11-20T05:11:23;1.20;99.90
55642;DHT22;41509;53.108;6.100;2022-11-20T05:13:50;1.20;99.90
55642;DHT22;41509;53.108;6.100;2022-11-20T05:16:21;1.20;99.90
55642;DHT22;41509;53.108;6.100;2022-11-20T05:18:48;1.20;99.90
55642;DHT22;41509;53.108;6.100;2022-11-20T05:21:13;1.20;99.90
55642;DHT22;41509;53.108;6.100;2022-11-20T05:23:40;1.20;99.90
55642;DHT22;41509;53.108;6.100;2022-11-20T05:26:07;1.20;99.90
55642;DHT22;41509;53.108;6.100;2022-11-20T05:28:34;1.10;99.90
55642;DHT22;41509;53.108;6.100;2022-11-20T05:31:08;1.10;99.90
55642;DHT22;41509;53.108;6.100;2022-11-20T05:33:34;1.10;99.90
55642;DHT22;41509;53.108;6.100;2022-11-20T05:36:04;1.10;99.90
55642;DHT22;41509;53.108;6.100;2022-11-20T05:38:30;1.10;99.90
55642;DHT22;41509;53.108;6.100;2022-11-20T05:41:03;1.10;99.90
55642;DHT22;41509;53.108;6.100;2022-11-20T05:43:32;1.10;99.90
55642;DHT22;41509;53.108;6.100;2022-11-20T05:45:58;1.10;99.90
55642;DHT22;41509;53.108;6.100;2022-11-20T05:48:23;1.10;99.90
55642;DHT22;41509;53.108;6.100;2022-11-20T05:50:49;1.10;99.90
55642;DHT22;41509;53.108;6.100;2022-11-20T05:53:14;1.10;99.90
55642;DHT22;41509;53.108;6.100;2022-11-20T05:55:40;1.10;99.90
55642;DHT22;41509;53.108;6.100;2022-11-20T05:58:06;1.10;99.90
55642;DHT22;41509;53.108;6.100;2022-11-20T06:00:31;1.10;99.90
55642;DHT22;41509;53.108;6.100;2022-11-20T06:02:57;1.10;99.90
55642;DHT22;41509;53.108;6.100;2022-11-20T06:05:22;1.20;99.90
55642;DHT22;41509;53.108;6.100;2022-11-20T06:07:48;1.20;99.90
55642;DHT22;41509;53.108;6.100;2022-11-20T06:10:13;1.20;99.90
55642;DHT22;41509;53.108;6.100;2022-11-20T06:12:39;1.20;99.90
55642;DHT22;41509;53.108;6.100;2022-11-20T06:15:05;1.20;99.90
55642;DHT22;41509;53.108;6.100;2022-11-20T06:17:31;1.20;99.90
55642;DHT22;41509;53.108;6.100;2022-11-20T06:19:56;1.20;99.90
55642;DHT22;41509;53.108;6.100;2022-11-20T06:22:22;1.20;99.90
55642;DHT22;41509;53.108;6.100;2022-11-20T06:24:48;1.20;99.90
55642;DHT22;41509;53.108;6.100;2022-11-20T06:27:13;1.20;99.90
55642;DHT22;41509;53.108;6.100;2022-11-20T06:29:39;1.20;99.90
55642;DHT22;41509;53.108;6.100;2022-11-20T06:32:05;1.20;99.90
55642;DHT22;41509;53.108;6.100;2022-11-20T06:34:30;1.20;99.90
55642;DHT22;41509;53.108;6.100;2022-11-20T06:36:56;1.20;99.90
55642;DHT22;41509;53.108;6.100;2022-11-20T06:39:22;1.20;99.90
55642;DHT22;41509;53.108;6.100;2022-11-20T06:41:47;1.20;99.90
55642;DHT22;41509;53.108;6.100;2022-11-20T06:44:13;1.20;99.90
55642;DHT22;41509;53.108;6.100;2022-11-20T06:46:38;1.20;99.90
55642;DHT22;41509;53.108;6.100;2022-11-20T06:49:04;1.10;99.90
55642;DHT22;41509;53.108;6.100;2022-11-20T06:51:30;1.10;99.90
55642;DHT22;41509;53.108;6.100;2022-11-20T06:53:55;1.10;99.90
55642;DHT22;41509;53.108;6.100;2022-11-20T06:56:21;1.10;99.90
55642;DHT22;41509;53.108;6.100;2022-11-20T06:58:46;1.10;99.90
55642;DHT22;41509;53.108;6.100;2022-11-20T07:01:13;1.00;99.90
55642;DHT22;41509;53.108;6.100;2022-11-20T07:03:40;1.00;99.90
55642;DHT22;41509;53.108;6.100;2022-11-20T07:06:06;1.00;99.90
55642;DHT22;41509;53.108;6.100;2022-11-20T07:08:33;1.00;99.90
55642;DHT22;41509;53.108;6.100;2022-11-20T07:10:59;1.00;99.90
55642;DHT22;41509;53.108;6.100;2022-11-20T07:13:26;0.90;99.90
55642;DHT22;41509;53.108;6.100;2022-11-20T07:15:52;0.90;99.90
55642;DHT22;41509;53.108;6.100;2022-11-20T07:18:18;0.90;99.90
55642;DHT22;41509;53.108;6.100;2022-11-20T07:20:43;0.90;99.90
55642;DHT22;41509;53.108;6.100;2022-11-20T07:23:09;0.90;99.90
55642;DHT22;41509;53.108;6.100;2022-11-20T07:25:34;0.90;99.90
55642;DHT22;41509;53.108;6.100;2022-11-20T07:28:01;0.90;99.90
55642;DHT22;41509;53.108;6.100;2022-11-20T07:30:28;0.90;99.90
55642;DHT22;41509;53.108;6.100;2022-11-20T07:32:54;0.90;99.90
55642;DHT22;41509;53.108;6.100;2022-11-20T07:35:21;1.00;99.90
55642;DHT22;41509;53.108;6.100;2022-11-20T07:37:47;1.00;99.90
55642;DHT22;41509;53.108;6.100;2022-11-20T07:40:14;1.00;99.90
55642;DHT22;41509;53.108;6.100;2022-11-20T07:42:53;1.00;99.90
55642;DHT22;41509;53.108;6.100;2022-11-20T07:45:21;1.00;99.90
55642;DHT22;41509;53.108;6.100;2022-11-20T07:47:47;1.00;99.90
55642;DHT22;41509;53.108;6.100;2022-11-20T07:50:13;1.10;99.90
55642;DHT22;41509;53.108;6.100;2022-11-20T07:52:39;1.10;99.90
55642;DHT22;41509;53.108;6.100;2022-11-20T07:55:06;1.10;99.90
55642;DHT22;41509;53.108;6.100;2022-11-20T07:57:32;1.10;99.90
55642;DHT22;41509;53.108;6.100;2022-11-20T07:59:58;1.10;99.90
55642;DHT22;41509;53.108;6.100;2022-11-20T08:02:24;1.00;99.90
55642;DHT22;41509;53.108;6.100;2022-11-20T08:04:49;1.10;99.90
55642;DHT22;41509;53.108;6.100;2022-11-20T08:07:15;1.10;99.90
55642;DHT22;41509;53.108;6.100;2022-11-20T08:09:41;1.10;99.90
55642;DHT22;41509;53.108;6.100;2022-11-20T08:12:06;1.10;99.90
55642;DHT22;41509;53.108;6.100;2022-11-20T08:14:50;1.10;99.90
55642;DHT22;41509;53.108;6.100;2022-11-20T08:17:16;1.10;99.90
55642;DHT22;41509;53.108;6.100;2022-11-20T08:19:42;1.10;99.90
55642;DHT22;41509;53.108;6.100;2022-11-20T08:22:07;1.10;99.90
55642;DHT22;41509;53.108;6.100;2022-11-20T08:24:33;1.10;99.90
55642;DHT22;41509;53.108;6.100;2022-11-20T08:26:59;1.10;99.90
55642;DHT22;41509;53.108;6.100;2022-11-20T08:29:26;1.10;99.90
55642;DHT22;41509;53.108;6.100;2022-11-20T08:31:52;1.10;99.90
55642;DHT22;41509;53.108;6.100;2022-11-20T08:34:17;1.10;99.90
55642;DHT22;41509;53.108;6.100;2022-11-20T08:36:43;1.20;99.90
55642;DHT22;41509;53.108;6.100;2022-11-20T08:39:13;1.20;99.90
55642;DHT22;41509;53.108;6.100;2022-11-20T08:41:39;1.20;99.90
55642;DHT22;41509;53.108;6.100;2022-11-20T08:44:06;1.20;99.90
55642;DHT22;41509;53.108;6.100;2022-11-20T08:48:59;1.30;99.90
55642;DHT22;41509;53.108;6.100;2022-11-20T08:51:25;1.30;99.90
55642;DHT22;41509;53.108;6.100;2022-11-20T08:53:51;1.40;99.90
55642;DHT22;41509;53.108;6.100;2022-11-20T08:56:17;1.40;99.90
55642;DHT22;41509;53.108;6.100;2022-11-20T08:58:43;1.40;99.90
55642;DHT22;41509;53.108;6.100;2022-11-20T09:01:08;1.40;99.90
55642;DHT22;41509;53.108;6.100;2022-11-20T09:03:34;1.50;99.90
55642;DHT22;41509;53.108;6.100;2022-11-20T09:06:02;1.50;99.90
55642;DHT22;41509;53.108;6.100;2022-11-20T09:08:28;1.50;99.90
55642;DHT22;41509;53.108;6.100;2022-11-20T09:10:55;1.60;99.90
55642;DHT22;41509;53.108;6.100;2022-11-20T09:13:21;1.60;99.90
55642;DHT22;41509;53.108;6.100;2022-11-20T09:15:56;1.70;99.90
55642;DHT22;41509;53.108;6.100;2022-11-20T09:18:22;1.70;99.90
55642;DHT22;41509;53.108;6.100;2022-11-20T09:20:48;1.70;99.90
55642;DHT22;41509;53.108;6.100;2022-11-20T09:23:14;1.80;99.90
55642;DHT22;41509;53.108;6.100;2022-11-20T09:25:43;1.80;99.90
55642;DHT22;41509;53.108;6.100;2022-11-20T09:28:09;1.80;99.90
55642;DHT22;41509;53.108;6.100;2022-11-20T09:30:35;1.90;99.90
55642;DHT22;41509;53.108;6.100;2022-11-20T09:33:01;1.90;99.90
55642;DHT22;41509;53.108;6.100;2022-11-20T09:35:26;1.90;99.90
55642;DHT22;41509;53.108;6.100;2022-11-20T09:37:52;2.00;99.90
55642;DHT22;41509;53.108;6.100;2022-11-20T09:40:23;2.00;99.90
55642;DHT22;41509;53.108;6.100;2022-11-20T09:43:12;2.00;99.90
55642;DHT22;41509;53.108;6.100;2022-11-20T09:54:20;2.10;99.90
55642;DHT22;41509;53.108;6.100;2022-11-20T09:57:01;2.20;99.90
55642;DHT22;41509;53.108;6.100;2022-11-20T09:59:40;2.20;99.90
55642;DHT22;41509;53.108;6.100;2022-11-20T10:04:45;2.30;99.90
55642;DHT22;41509;53.108;6.100;2022-11-20T10:07:30;2.40;99.90
55642;DHT22;41509;53.108;6.100;2022-11-20T10:09:58;2.50;99.90
55642;DHT22;41509;53.108;6.100;2022-11-20T10:20:37;2.70;99.90
55642;DHT22;41509;53.108;6.100;2022-11-20T10:31:09;2.90;99.90
55642;DHT22;41509;53.108;6.100;2022-11-20T10:33:44;3.00;99.90
55642;DHT22;41509;53.108;6.100;2022-11-20T10:36:19;3.10;99.90
55642;DHT22;41509;53.108;6.100;2022-11-20T10:38:58;3.20;99.90
55642;DHT22;41509;53.108;6.100;2022-11-20T10:41:33;3.20;99.90
55642;DHT22;41509;53.108;6.100;2022-11-20T10:46:40;3.40;99.90
55642;DHT22;41509;53.108;6.100;2022-11-20T10:49:17;3.50;99.90
55642;DHT22;41509;53.108;6.100;2022-11-20T10:56:52;3.70;99.90
55642;DHT22;41509;53.108;6.100;2022-11-20T11:01:52;3.70;99.90
55642;DHT22;41509;53.108;6.100;2022-11-20T11:04:36;3.80;99.90
55642;DHT22;41509;53.108;6.100;2022-11-20T11:07:12;3.80;99.90
55642;DHT22;41509;53.108;6.100;2022-11-20T11:09:46;3.80;99.90
55642;DHT22;41509;53.108;6.100;2022-11-20T11:12:13;3.80;99.90
55642;DHT22;41509;53.108;6.100;2022-11-20T11:14:47;3.90;99.90
55642;DHT22;41509;53.108;6.100;2022-11-20T11:17:30;4.00;99.90
55642;DHT22;41509;53.108;6.100;2022-11-20T11:20:06;4.10;99.90
55642;DHT22;41509;53.108;6.100;2022-11-20T11:22:55;4.10;99.90
55642;DHT22;41509;53.108;6.100;2022-11-20T11:25:34;4.20;99.90
55642;DHT22;41509;53.108;6.100;2022-11-20T11:28:23;4.20;99.90
55642;DHT22;41509;53.108;6.100;2022-11-20T11:30:51;4.20;99.90
55642;DHT22;41509;53.108;6.100;2022-11-20T11:33:23;4.20;99.90
55642;DHT22;41509;53.108;6.100;2022-11-20T11:35:56;4.20;99.90
55642;DHT22;41509;53.108;6.100;2022-11-20T11:38:30;4.30;99.90
55642;DHT22;41509;53.108;6.100;2022-11-20T11:40:58;4.30;99.90
55642;DHT22;41509;53.108;6.100;2022-11-20T11:43:26;4.30;99.90
55642;DHT22;41509;53.108;6.100;2022-11-20T11:49:15;4.30;99.90
55642;DHT22;41509;53.108;6.100;2022-11-20T11:52:10;4.30;99.90
55642;DHT22;41509;53.108;6.100;2022-11-20T11:55:00;4.30;99.90
55642;DHT22;41509;53.108;6.100;2022-11-20T11:57:36;4.30;99.90
55642;DHT22;41509;53.108;6.100;2022-11-20T12:02:36;4.20;99.90
55642;DHT22;41509;53.108;6.100;2022-11-20T12:13:39;4.30;99.90
55642;DHT22;41509;53.108;6.100;2022-11-20T12:16:03;4.30;99.90
55642;DHT22;41509;53.108;6.100;2022-11-20T12:18:29;4.20;99.90
55642;DHT22;41509;53.108;6.100;2022-11-20T12:23:40;4.20;99.90
55642;DHT22;41509;53.108;6.100;2022-11-20T12:37:29;4.40;99.90
55642;DHT22;41509;53.108;6.100;2022-11-20T12:40:19;4.40;99.90
55642;DHT22;41509;53.108;6.100;2022-11-20T12:48:42;4.30;99.90
55642;DHT22;41509;53.108;6.100;2022-11-20T12:51:29;4.30;99.90
55642;DHT22;41509;53.108;6.100;2022-11-20T13:02:25;4.20;99.90
55642;DHT22;41509;53.108;6.100;2022-11-20T13:05:00;4.20;99.90
55642;DHT22;41509;53.108;6.100;2022-11-20T13:07:30;4.10;99.90
55642;DHT22;41509;53.108;6.100;2022-11-20T13:09:58;4.10;99.90
55642;DHT22;41509;53.108;6.100;2022-11-20T13:12:40;4.10;99.90
55642;DHT22;41509;53.108;6.100;2022-11-20T13:15:40;4.20;99.90
55642;DHT22;41509;53.108;6.100;2022-11-20T13:18:11;4.10;99.90
55642;DHT22;41509;53.108;6.100;2022-11-20T13:20:43;4.20;99.90
55642;DHT22;41509;53.108;6.100;2022-11-20T13:23:09;4.20;99.90
55642;DHT22;41509;53.108;6.100;2022-11-20T13:25:37;4.20;99.90
55642;DHT22;41509;53.108;6.100;2022-11-20T13:30:35;4.10;99.90
55642;DHT22;41509;53.108;6.100;2022-11-20T13:33:21;4.10;99.90
55642;DHT22;41509;53.108;6.100;2022-11-20T13:36:21;4.10;99.90
55642;DHT22;41509;53.108;6.100;2022-11-20T13:38:49;4.00;99.90
55642;DHT22;41509;53.108;6.100;2022-11-20T13:43:57;4.00;99.90
55642;DHT22;41509;53.108;6.100;2022-11-20T13:46:23;4.00;99.90
55642;DHT22;41509;53.108;6.100;2022-11-20T13:49:10;4.00;99.90
55642;DHT22;41509;53.108;6.100;2022-11-20T13:51:46;4.00;99.90
55642;DHT22;41509;53.108;6.100;2022-11-20T14:00:19;4.00;99.90
55642;DHT22;41509;53.108;6.100;2022-11-20T14:03:09;4.00;99.90
55642;DHT22;41509;53.108;6.100;2022-11-20T14:05:40;3.90;99.90
55642;DHT22;41509;53.108;6.100;2022-11-20T14:08:21;3.90;99.90
55642;DHT22;41509;53.108;6.100;2022-11-20T14:10:48;4.00;99.90
55642;DHT22;41509;53.108;6.100;2022-11-20T14:13:20;3.90;99.90
55642;DHT22;41509;53.108;6.100;2022-11-20T14:15:46;3.80;99.90
55642;DHT22;41509;53.108;6.100;2022-11-20T14:18:14;3.80;99.90
55642;DHT22;41509;53.108;6.100;2022-11-20T14:20:41;3.80;99.90
55642;DHT22;41509;53.108;6.100;2022-11-20T14:23:10;3.80;99.90
55642;DHT22;41509;53.108;6.100;2022-11-20T14:25:36;3.80;99.90
55642;DHT22;41509;53.108;6.100;2022-11-20T14:28:03;3.80;99.90
55642;DHT22;41509;53.108;6.100;2022-11-20T14:30:42;3.70;99.90
55642;DHT22;41509;53.108;6.100;2022-11-20T14:33:13;3.80;99.90
55642;DHT22;41509;53.108;6.100;2022-11-20T14:35:49;3.70;99.90
55642;DHT22;41509;53.108;6.100;2022-11-20T14:38:17;3.70;99.90
55642;DHT22;41509;53.108;6.100;2022-11-20T14:40:43;3.70;99.90
55642;DHT22;41509;53.108;6.100;2022-11-20T14:43:36;3.60;99.90
55642;DHT22;41509;53.108;6.100;2022-11-20T14:46:08;3.60;99.90
55642;DHT22;41509;53.108;6.100;2022-11-20T14:48:39;3.60;99.90
55642;DHT22;41509;53.108;6.100;2022-11-20T14:51:09;3.60;99.90
55642;DHT22;41509;53.108;6.100;2022-11-20T14:53:35;3.60;99.90
55642;DHT22;41509;53.108;6.100;2022-11-20T14:56:02;3.60;99.90
55642;DHT22;41509;53.108;6.100;2022-11-20T14:58:30;3.50;99.90
55642;DHT22;41509;53.108;6.100;2022-11-20T15:01:05;3.50;99.90
55642;DHT22;41509;53.108;6.100;2022-11-20T15:03:40;3.60;99.90
55642;DHT22;41509;53.108;6.100;2022-11-20T15:06:09;3.50;99.90
55642;DHT22;41509;53.108;6.100;2022-11-20T15:08:35;3.50;99.90
55642;DHT22;41509;53.108;6.100;2022-11-20T15:11:02;3.50;99.90
55642;DHT22;41509;53.108;6.100;2022-11-20T15:13:38;3.50;99.90
55642;DHT22;41509;53.108;6.100;2022-11-20T15:16:15;3.40;99.90
55642;DHT22;41509;53.108;6.100;2022-11-20T15:18:42;3.40;99.90
55642;DHT22;41509;53.108;6.100;2022-11-20T15:21:12;3.40;99.90
55642;DHT22;41509;53.108;6.100;2022-11-20T15:23:38;3.50;99.90
55642;DHT22;41509;53.108;6.100;2022-11-20T15:26:07;3.40;99.90
55642;DHT22;41509;53.108;6.100;2022-11-20T15:28:44;3.40;99.90
55642;DHT22;41509;53.108;6.100;2022-11-20T15:31:15;3.40;99.90
55642;DHT22;41509;53.108;6.100;2022-11-20T15:33:41;3.40;99.90
55642;DHT22;41509;53.108;6.100;2022-11-20T15:36:08;3.40;99.90
55642;DHT22;41509;53.108;6.100;2022-11-20T15:38:34;3.40;99.90
55642;DHT22;41509;53.108;6.100;2022-11-20T15:41:02;3.30;99.90
55642;DHT22;41509;53.108;6.100;2022-11-20T15:43:28;3.30;99.90
55642;DHT22;41509;53.108;6.100;2022-11-20T15:45:59;3.30;99.90
55642;DHT22;41509;53.108;6.100;2022-11-20T15:48:45;3.20;99.90
55642;DHT22;41509;53.108;6.100;2022-11-20T15:51:50;3.30;99.90
55642;DHT22;41509;53.108;6.100;2022-11-20T15:54:20;3.20;99.90
55642;DHT22;41509;53.108;6.100;2022-11-20T15:56:50;3.20;99.90
55642;DHT22;41509;53.108;6.100;2022-11-20T15:59:18;3.20;99.90
55642;DHT22;41509;53.108;6.100;2022-11-20T16:01:46;3.20;99.90
55642;DHT22;41509;53.108;6.100;2022-11-20T16:04:14;3.20;99.90
55642;DHT22;41509;53.108;6.100;2022-11-20T16:06:40;3.20;99.90
55642;DHT22;41509;53.108;6.100;2022-11-20T16:09:06;3.10;99.90
55642;DHT22;41509;53.108;6.100;2022-11-20T16:11:32;3.10;99.90
55642;DHT22;41509;53.108;6.100;2022-11-20T16:13:57;3.10;99.90
55642;DHT22;41509;53.108;6.100;2022-11-20T16:16:42;3.10;99.90
55642;DHT22;41509;53.108;6.100;2022-11-20T16:19:15;3.10;99.90
55642;DHT22;41509;53.108;6.100;2022-11-20T16:21:41;3.10;99.90
55642;DHT22;41509;53.108;6.100;2022-11-20T16:24:09;3.10;99.90
55642;DHT22;41509;53.108;6.100;2022-11-20T16:26:39;3.10;99.90
55642;DHT22;41509;53.108;6.100;2022-11-20T16:29:05;3.10;99.90
55642;DHT22;41509;53.108;6.100;2022-11-20T16:31:32;3.10;99.90
55642;DHT22;41509;53.108;6.100;2022-11-20T16:34:06;3.10;99.90
55642;DHT22;41509;53.108;6.100;2022-11-20T16:36:35;3.10;99.90
55642;DHT22;41509;53.108;6.100;2022-11-20T16:39:02;3.10;99.90
55642;DHT22;41509;53.108;6.100;2022-11-20T16:41:31;3.10;99.90
55642;DHT22;41509;53.108;6.100;2022-11-20T16:43:58;3.10;99.90
55642;DHT22;41509;53.108;6.100;2022-11-20T16:46:31;3.10;99.90
55642;DHT22;41509;53.108;6.100;2022-11-20T16:48:59;3.10;99.90
55642;DHT22;41509;53.108;6.100;2022-11-20T16:51:25;3.10;99.90
55642;DHT22;41509;53.108;6.100;2022-11-20T16:53:52;3.00;99.90
55642;DHT22;41509;53.108;6.100;2022-11-20T16:56:22;3.00;99.90
55642;DHT22;41509;53.108;6.100;2022-11-20T16:58:49;3.00;99.90
55642;DHT22;41509;53.108;6.100;2022-11-20T17:01:17;3.00;99.90
55642;DHT22;41509;53.108;6.100;2022-11-20T17:03:46;2.90;99.90
55642;DHT22;41509;53.108;6.100;2022-11-20T17:06:19;3.00;99.90
55642;DHT22;41509;53.108;6.100;2022-11-20T17:08:47;3.00;99.90
55642;DHT22;41509;53.108;6.100;2022-11-20T17:11:15;3.00;99.90
55642;DHT22;41509;53.108;6.100;2022-11-20T17:13:41;3.00;99.90
55642;DHT22;41509;53.108;6.100;2022-11-20T17:16:09;3.00;99.90
55642;DHT22;41509;53.108;6.100;2022-11-20T17:18:35;3.00;99.90
55642;DHT22;41509;53.108;6.100;2022-11-20T17:21:01;3.00;99.90
55642;DHT22;41509;53.108;6.100;2022-11-20T17:23:35;3.00;99.90
55642;DHT22;41509;53.108;6.100;2022-11-20T17:26:10;3.00;99.90
55642;DHT22;41509;53.108;6.100;2022-11-20T17:28:36;2.90;99.90
55642;DHT22;41509;53.108;6.100;2022-11-20T17:31:04;2.90;99.90
55642;DHT22;41509;53.108;6.100;2022-11-20T17:33:31;2.90;99.90
55642;DHT22;41509;53.108;6.100;2022-11-20T17:35:56;2.90;99.90
55642;DHT22;41509;53.108;6.100;2022-11-20T17:38:22;2.90;99.90